Time;durP1;ratioP1;P1;durP2;ratioP2;P2;SDS_P1;SDS_P2;PMS_P1;PMS_P2;Temp;Humidity;BMP_temperature;BMP_pressure;BME280_temperature;BME280_humidity;BME280_pressure;Samples;Min_cycle;Max_cycle;Signal;HPM_P1;HPM_P2
2024/01/30 00:01:08;;;;;;;23.60;21.50;;;4.60;99.90;;;;;;5081252;28;20275;-61
2024/01/30 00:03:35;;;;;;;24.83;22.23;;;4.60;99.90;;;;;;5053764;28;20199;-61
2024/01/30 00:06:03;;;;;;;24.83;22.50;;;4.60;99.90;;;;;;5079717;28;20269;-60
2024/01/30 00:08:30;;;;;;;23.77;21.67;;;4.60;99.90;;;;;;5089112;28;20440;-61
2024/01/30 00:10:57;;;;;;;24.27;21.87;;;4.60;99.90;;;;;;5077082;28;20406;-63
2024/01/30 00:13:24;;;;;;;24.03;21.90;;;4.60;99.90;;;;;;5092128;28;20608;-60
2024/01/30 00:15:51;;;;;;;24.83;22.33;;;4.60;99.90;;;;;;5084181;28;20205;-63
2024/01/30 00:18:19;;;;;;;30.80;22.40;;;4.60;99.90;;;;;;5085668;28;20214;-64
2024/01/30 00:20:46;;;;;;;31.07;22.93;;;4.50;99.90;;;;;;5081447;28;20194;-60
2024/01/30 00:23:13;;;;;;;25.13;22.00;;;4.50;99.90;;;;;;5079707;28;20178;-63
2024/01/30 00:25:40;;;;;;;25.20;22.53;;;4.50;99.90;;;;;;5086089;28;20197;-61
2024/01/30 00:28:07;;;;;;;26.27;23.40;;;4.40;99.90;;;;;;5083312;28;20299;-62
2024/01/30 00:30:34;;;;;;;27.60;22.97;;;4.40;99.90;;;;;;5084966;28;20252;-62
2024/01/30 00:33:01;;;;;;;25.00;22.50;;;4.40;99.90;;;;;;5086526;28;20221;-62
2024/01/30 00:35:29;;;;;;;24.67;22.23;;;4.40;99.90;;;;;;5083366;28;20574;-63
2024/01/30 00:37:57;;;;;;;24.37;21.77;;;4.40;99.90;;;;;;5083509;28;20198;-63
2024/01/30 00:40:24;;;;;;;25.97;22.23;;;4.40;99.90;;;;;;5082578;28;20289;-63
2024/01/30 00:42:51;;;;;;;24.77;22.23;;;4.30;99.90;;;;;;5083800;28;20248;-62
2024/01/30 00:45:18;;;;;;;25.43;22.73;;;4.30;99.90;;;;;;5085070;28;20190;-62
2024/01/30 00:47:45;;;;;;;26.73;23.57;;;4.30;99.90;;;;;;5091386;28;20205;-62
2024/01/30 00:50:12;;;;;;;25.37;22.63;;;4.20;99.90;;;;;;5081330;28;20194;-62
2024/01/30 00:52:41;;;;;;;26.07;23.43;;;4.20;99.90;;;;;;5083321;28;20279;-62
2024/01/30 00:55:08;;;;;;;24.00;21.40;;;4.20;99.90;;;;;;5086500;28;20256;-63
2024/01/30 00:57:35;;;;;;;23.27;21.17;;;4.20;99.90;;;;;;5086005;28;20634;-62
2024/01/30 01:00:03;;;;;;;24.33;22.03;;;4.20;99.90;;;;;;5070861;28;20233;-64
2024/01/30 01:02:30;;;;;;;23.53;21.17;;;4.10;99.90;;;;;;5073707;28;20267;-66
2024/01/30 01:04:57;;;;;;;21.57;19.57;;;4.10;99.90;;;;;;5083216;28;20291;-67
2024/01/30 01:07:24;;;;;;;21.40;19.60;;;4.10;99.90;;;;;;5078688;28;20601;-66
2024/01/30 01:09:51;;;;;;;22.07;20.27;;;4.10;99.90;;;;;;5084092;28;20395;-69
2024/01/30 01:12:18;;;;;;;20.57;18.67;;;4.20;99.90;;;;;;5084664;28;20198;-69
2024/01/30 01:14:45;;;;;;;21.20;19.30;;;4.20;99.90;;;;;;5077828;28;20699;-68
2024/01/30 01:17:12;;;;;;;20.37;18.57;;;4.20;99.90;;;;;;5083092;28;20528;-68
2024/01/30 01:19:39;;;;;;;21.57;19.70;;;4.20;99.90;;;;;;5083547;28;20655;-68
2024/01/30 01:22:06;;;;;;;20.20;18.50;;;4.20;99.90;;;;;;5086089;28;20205;-68
2024/01/30 01:24:34;;;;;;;21.30;19.40;;;4.20;99.90;;;;;;5082685;28;20198;-67
2024/01/30 01:27:01;;;;;;;21.50;19.60;;;4.20;99.90;;;;;;5076861;28;20194;-68
2024/01/30 01:29:30;;;;;;;21.40;19.40;;;4.20;99.90;;;;;;5085905;28;20202;-68
2024/01/30 01:31:58;;;;;;;20.50;18.77;;;4.20;99.90;;;;;;5085789;28;20314;-68
2024/01/30 01:34:25;;;;;;;21.70;19.63;;;4.20;99.90;;;;;;5082459;28;20186;-68
2024/01/30 01:36:56;;;;;;;21.30;19.57;;;4.20;99.90;;;;;;5049911;28;20225;-67
2024/01/30 01:39:23;;;;;;;20.67;18.70;;;4.20;99.90;;;;;;5045000;28;20310;-67
2024/01/30 01:41:51;;;;;;;20.43;18.83;;;4.30;99.90;;;;;;5066132;28;20195;-68
2024/01/30 01:44:18;;;;;;;20.20;18.63;;;4.30;99.90;;;;;;5062170;28;20277;-67
2024/01/30 01:46:46;;;;;;;21.47;19.73;;;4.20;99.90;;;;;;5063008;28;20198;-68
2024/01/30 01:49:14;;;;;;;20.20;18.50;;;4.20;99.90;;;;;;5064184;28;20206;-67
2024/01/30 01:51:44;;;;;;;20.43;18.47;;;4.30;99.90;;;;;;5063064;28;20252;-69
2024/01/30 01:54:12;;;;;;;19.97;18.37;;;4.30;99.90;;;;;;5064887;28;20219;-68
2024/01/30 01:56:39;;;;;;;19.70;18.07;;;4.20;99.90;;;;;;5066602;28;20199;-69
2024/01/30 01:59:08;;;;;;;19.63;17.83;;;4.20;99.90;;;;;;5061228;28;20828;-68
2024/01/30 02:01:40;;;;;;;19.93;18.30;;;4.20;99.90;;;;;;5040779;28;20216;-68
2024/01/30 02:04:08;;;;;;;20.03;18.30;;;4.20;99.90;;;;;;5044121;28;20219;-67
2024/01/30 02:06:35;;;;;;;20.20;18.43;;;4.20;99.90;;;;;;5060778;28;20215;-68
2024/01/30 02:09:04;;;;;;;20.17;18.07;;;4.40;1.00;;;;;;5065474;28;20195;-67
2024/01/30 02:11:32;;;;;;;18.47;17.13;;;4.70;1.00;;;;;;5045617;28;20214;-68
2024/01/30 02:14:05;;;;;;;19.43;17.77;;;4.70;1.00;;;;;;5067162;28;20198;-68
2024/01/30 02:16:32;;;;;;;20.10;18.27;;;4.60;1.00;;;;;;5064957;28;20292;-68
2024/01/30 02:18:59;;;;;;;19.87;18.17;;;4.60;1.00;;;;;;5066247;28;20699;-67
2024/01/30 02:21:26;;;;;;;21.20;18.90;;;4.50;1.00;;;;;;5039887;28;20205;-67
2024/01/30 02:23:55;;;;;;;19.33;17.73;;;4.40;1.00;;;;;;5044464;28;20232;-67
2024/01/30 02:26:25;;;;;;;19.77;18.20;;;4.30;1.00;;;;;;5062923;28;20196;-67
2024/01/30 02:28:52;;;;;;;19.80;18.07;;;4.30;1.00;;;;;;5059961;28;20806;-67
2024/01/30 02:31:19;;;;;;;20.73;18.90;;;4.20;1.00;;;;;;5062260;28;20209;-67
2024/01/30 02:33:46;;;;;;;19.10;17.40;;;4.20;1.00;;;;;;5023517;28;20200;-67
2024/01/30 02:36:13;;;;;;;19.30;17.70;;;4.20;1.00;;;;;;5063050;28;20601;-67
2024/01/30 02:38:40;;;;;;;20.77;18.80;;;4.20;1.00;;;;;;5077841;28;20194;-67
2024/01/30 02:41:07;;;;;;;20.40;18.23;;;4.20;1.00;;;;;;5082089;28;20202;-67
2024/01/30 02:43:34;;;;;;;20.60;18.43;;;4.30;1.00;;;;;;5070546;28;20639;-67
2024/01/30 02:46:00;;;;;;;20.23;18.33;;;4.30;1.00;;;;;;5084834;28;20221;-67
2024/01/30 02:48:28;;;;;;;20.73;18.67;;;4.40;1.00;;;;;;5081442;28;20186;-67
2024/01/30 02:50:55;;;;;;;20.20;18.40;;;4.40;1.00;;;;;;5080136;28;20292;-68
2024/01/30 02:53:22;;;;;;;20.63;18.83;;;4.40;1.00;;;;;;5082648;28;20286;-67
2024/01/30 02:55:49;;;;;;;20.13;18.33;;;4.40;1.00;;;;;;5085150;28;20229;-67
2024/01/30 02:58:15;;;;;;;19.33;17.80;;;4.40;1.00;;;;;;5080874;28;20710;-69
2024/01/30 03:04:43;;;;;;;19.30;17.70;;;4.50;1.00;;;;;;5077825;28;20185;-66
2024/01/30 03:07:10;;;;;;;19.97;18.07;;;4.80;1.00;;;;;;5074099;28;20195;-69
2024/01/30 03:09:37;;;;;;;20.23;18.40;;;4.80;1.00;;;;;;5076244;28;20426;-69
2024/01/30 03:12:05;;;;;;;20.37;18.23;;;5.00;1.00;;;;;;5071260;28;20646;-69
2024/01/30 03:14:36;;;;;;;19.50;17.73;;;5.20;1.00;;;;;;5080698;28;20287;-70
2024/01/30 03:17:03;;;;;;;20.13;18.33;;;5.10;1.00;;;;;;5092754;28;20190;-70
2024/01/30 03:19:30;;;;;;;20.30;18.37;;;5.10;1.00;;;;;;5090752;28;20727;-68
2024/01/30 03:21:57;;;;;;;19.83;18.20;;;4.90;1.00;;;;;;5087188;28;20296;-61
2024/01/30 03:24:24;;;;;;;20.57;18.43;;;4.90;1.00;;;;;;5084647;28;20194;-62
2024/01/30 03:26:51;;;;;;;20.70;18.77;;;5.10;1.00;;;;;;5084411;28;20335;-61
2024/01/30 03:29:18;;;;;;;20.30;18.50;;;5.30;1.00;;;;;;5081147;28;20198;-62
2024/01/30 03:31:47;;;;;;;20.73;18.80;;;5.50;1.00;;;;;;5083362;28;20778;-62
2024/01/30 03:34:14;;;;;;;20.97;18.90;;;5.60;1.00;;;;;;5063084;28;20238;-68
2024/01/30 03:36:41;;;;;;;21.30;19.20;;;5.80;1.00;;;;;;5059609;28;20567;-62
2024/01/30 03:39:08;;;;;;;20.67;18.87;;;5.80;1.00;;;;;;5081601;28;20214;-62
2024/01/30 03:41:35;;;;;;;21.03;18.50;;;5.80;1.00;;;;;;5087615;28;20225;-61
2024/01/30 03:44:02;;;;;;;21.30;19.20;;;5.70;99.90;;;;;;5064851;28;20260;-61
2024/01/30 03:46:29;;;;;;;20.23;18.43;;;5.50;1.00;;;;;;5085257;28;20697;-62
2024/01/30 03:48:56;;;;;;;21.90;18.67;;;5.70;1.00;;;;;;5075141;28;20405;-61
2024/01/30 03:51:23;;;;;;;20.83;19.00;;;5.90;99.90;;;;;;5087144;28;20202;-62
2024/01/30 03:53:49;;;;;;;20.77;18.87;;;6.00;99.90;;;;;;5085790;28;20298;-62
2024/01/30 03:56:16;;;;;;;23.67;19.10;;;6.10;99.90;;;;;;5088096;28;20277;-61
2024/01/30 03:58:43;;;;;;;20.53;18.53;;;6.00;99.90;;;;;;5085680;28;20710;-61
2024/01/30 04:01:14;;;;;;;21.53;19.07;;;6.10;99.90;;;;;;5083462;28;20554;-62
2024/01/30 04:03:43;;;;;;;21.10;19.07;;;6.20;99.90;;;;;;5086682;28;20712;-62
2024/01/30 04:06:11;;;;;;;19.50;17.97;;;6.20;99.90;;;;;;5077308;28;20273;-62
2024/01/30 04:08:38;;;;;;;19.83;18.23;;;6.20;99.90;;;;;;5084807;28;20280;-62
2024/01/30 04:11:06;;;;;;;22.50;19.17;;;6.20;99.90;;;;;;5088707;28;20311;-62
2024/01/30 04:13:33;;;;;;;20.07;18.27;;;6.30;99.90;;;;;;5084033;28;20450;-63
2024/01/30 04:16:01;;;;;;;20.30;18.40;;;6.30;99.90;;;;;;5083015;28;20654;-62
2024/01/30 04:18:29;;;;;;;19.27;17.70;;;6.10;99.90;;;;;;5084019;28;20198;-61
2024/01/30 04:20:56;;;;;;;20.87;18.77;;;6.20;99.90;;;;;;5084836;28;20218;-62
2024/01/30 04:23:23;;;;;;;20.17;18.47;;;6.30;99.90;;;;;;5067862;28;20208;-62
2024/01/30 04:25:50;;;;;;;20.10;18.23;;;6.20;99.90;;;;;;5075510;28;20187;-62
2024/01/30 04:28:17;;;;;;;20.27;18.53;;;6.10;99.90;;;;;;5085242;28;20291;-62
2024/01/30 04:30:44;;;;;;;20.70;18.90;;;6.10;99.90;;;;;;5081455;28;20562;-60
2024/01/30 04:33:11;;;;;;;20.03;18.43;;;6.10;99.90;;;;;;5083994;28;20589;-61
2024/01/30 04:35:38;;;;;;;19.63;18.03;;;6.00;99.90;;;;;;5069881;28;20713;-63
2024/01/30 04:38:05;;;;;;;20.53;18.73;;;5.90;99.90;;;;;;5048827;28;20265;-64
2024/01/30 04:40:32;;;;;;;20.93;19.13;;;5.80;99.90;;;;;;5058744;28;20660;-64
2024/01/30 04:42:59;;;;;;;20.73;18.83;;;5.80;1.00;;;;;;5045088;28;20195;-64
2024/01/30 04:45:26;;;;;;;19.73;18.23;;;5.80;1.00;;;;;;5062018;28;20282;-61
2024/01/30 04:47:53;;;;;;;19.37;17.67;;;5.70;1.00;;;;;;5066248;28;20195;-61
2024/01/30 04:50:20;;;;;;;20.43;18.30;;;5.60;1.00;;;;;;5042705;28;20199;-61
2024/01/30 04:52:47;;;;;;;19.83;18.07;;;5.60;1.00;;;;;;5067166;28;20228;-61
2024/01/30 04:55:14;;;;;;;19.10;17.50;;;5.50;1.00;;;;;;5066189;28;20241;-62
2024/01/30 04:57:41;;;;;;;20.70;18.70;;;5.50;1.00;;;;;;5067398;28;20544;-62
2024/01/30 05:00:09;;;;;;;19.73;17.93;;;5.50;1.00;;;;;;5055863;28;20926;-62
2024/01/30 05:02:36;;;;;;;20.97;19.10;;;5.50;1.00;;;;;;5061342;28;20199;-62
2024/01/30 05:05:04;;;;;;;19.27;17.70;;;5.50;1.00;;;;;;5063281;28;20203;-61
2024/01/30 05:07:31;;;;;;;21.20;19.07;;;5.40;1.00;;;;;;5047474;28;20219;-61
2024/01/30 05:09:58;;;;;;;20.47;18.50;;;5.30;1.00;;;;;;5046002;28;20203;-61
2024/01/30 05:12:27;;;;;;;20.33;18.67;;;5.40;1.00;;;;;;5065479;28;20183;-62
2024/01/30 05:14:54;;;;;;;20.80;19.03;;;5.30;1.00;;;;;;5042964;28;20193;-62
2024/01/30 05:17:21;;;;;;;20.80;19.00;;;5.30;1.00;;;;;;5065917;28;20192;-62
2024/01/30 05:19:48;;;;;;;20.30;18.53;;;5.20;1.00;;;;;;5045464;28;20207;-62
2024/01/30 05:22:15;;;;;;;20.63;18.73;;;5.10;1.00;;;;;;5060654;28;20586;-62
2024/01/30 05:24:42;;;;;;;20.27;18.07;;;5.10;1.00;;;;;;5062676;28;20194;-61
2024/01/30 05:27:10;;;;;;;19.07;17.37;;;5.10;1.00;;;;;;5064428;28;20218;-62
2024/01/30 05:29:37;;;;;;;19.47;17.80;;;5.30;1.00;;;;;;5056890;28;20191;-66
2024/01/30 05:32:05;;;;;;;19.53;17.70;;;5.40;1.00;;;;;;5066569;28;20202;-68
2024/01/30 05:34:32;;;;;;;20.50;18.70;;;5.30;1.00;;;;;;5059317;28;20663;-68
2024/01/30 05:36:59;;;;;;;20.03;18.23;;;5.10;1.00;;;;;;5043200;28;20290;-68
2024/01/30 05:39:26;;;;;;;20.23;18.33;;;5.00;1.00;;;;;;5064391;28;20219;-68
2024/01/30 05:41:54;;;;;;;19.70;17.80;;;4.90;1.00;;;;;;5062382;28;20278;-68
2024/01/30 05:44:21;;;;;;;20.70;18.63;;;4.90;1.00;;;;;;5063772;28;20252;-69
2024/01/30 05:46:48;;;;;;;20.07;18.37;;;5.00;1.00;;;;;;5044606;28;20867;-69
2024/01/30 05:49:15;;;;;;;20.17;18.20;;;5.00;1.00;;;;;;5062287;28;20244;-69
2024/01/30 05:51:42;;;;;;;20.87;18.70;;;5.00;1.00;;;;;;5043556;28;20229;-69
2024/01/30 05:54:09;;;;;;;20.10;18.20;;;5.00;1.00;;;;;;5061796;28;20266;-68
2024/01/30 05:56:36;;;;;;;20.57;18.17;;;5.00;1.00;;;;;;5048265;28;20198;-68
2024/01/30 05:59:03;;;;;;;21.50;19.37;;;5.00;1.00;;;;;;5047081;28;20199;-69
2024/01/30 06:01:32;;;;;;;21.03;18.80;;;4.90;1.00;;;;;;5023788;28;20259;-69
2024/01/30 06:03:59;;;;;;;21.47;19.30;;;4.80;1.00;;;;;;5038844;28;20218;-69
2024/01/30 06:06:26;;;;;;;20.27;18.07;;;4.70;1.00;;;;;;5023897;28;20237;-68
2024/01/30 06:08:55;;;;;;;19.90;18.10;;;4.60;1.00;;;;;;5047714;28;20198;-67
2024/01/30 06:11:22;;;;;;;19.73;18.03;;;4.70;1.00;;;;;;5067528;28;20511;-67
2024/01/30 06:13:48;;;;;;;25.33;18.80;;;4.70;1.00;;;;;;5066725;28;20758;-68
2024/01/30 06:16:15;;;;;;;19.97;18.00;;;4.70;1.00;;;;;;5067378;28;20198;-69
2024/01/30 06:18:42;;;;;;;20.57;18.67;;;4.70;1.00;;;;;;5067192;28;20197;-69
2024/01/30 06:21:09;;;;;;;20.13;18.27;;;4.60;1.00;;;;;;5049259;28;20211;-69
2024/01/30 06:23:39;;;;;;;20.37;18.47;;;4.50;1.00;;;;;;5065423;28;20672;-69
2024/01/30 06:26:07;;;;;;;20.20;18.07;;;4.40;1.00;;;;;;5043251;28;20295;-69
2024/01/30 06:28:34;;;;;;;20.90;18.67;;;4.40;1.00;;;;;;5060796;28;20206;-69
2024/01/30 06:31:01;;;;;;;19.70;17.90;;;4.40;1.00;;;;;;5039159;28;20571;-67
2024/01/30 06:33:28;;;;;;;21.87;19.57;;;4.30;1.00;;;;;;5059921;28;20269;-66
2024/01/30 06:35:55;;;;;;;19.47;17.93;;;4.20;1.00;;;;;;5070916;28;20575;-69
2024/01/30 06:38:22;;;;;;;21.80;19.43;;;4.10;1.00;;;;;;5084882;28;20216;-69
2024/01/30 06:40:49;;;;;;;22.07;19.17;;;4.00;1.00;;;;;;5069167;28;20284;-69
2024/01/30 06:43:16;;;;;;;22.07;19.40;;;4.10;1.00;;;;;;5075807;28;20190;-69
2024/01/30 06:45:44;;;;;;;20.17;18.17;;;4.10;1.00;;;;;;5083517;28;20243;-68
2024/01/30 06:48:11;;;;;;;20.00;18.10;;;4.10;1.00;;;;;;5081407;28;20236;-69
2024/01/30 06:50:38;;;;;;;19.60;17.90;;;4.10;1.00;;;;;;5085561;28;20196;-70
2024/01/30 06:53:05;;;;;;;21.17;18.97;;;4.10;1.00;;;;;;5090014;28;20567;-62
2024/01/30 06:55:32;;;;;;;21.27;19.07;;;4.10;1.00;;;;;;5088245;28;20302;-63
2024/01/30 06:57:59;;;;;;;21.47;19.37;;;4.10;1.00;;;;;;5076519;28;20229;-63
2024/01/30 07:00:26;;;;;;;21.30;19.07;;;4.10;1.00;;;;;;5089682;28;20581;-62
2024/01/30 07:02:53;;;;;;;26.23;21.27;;;4.20;1.00;;;;;;5089234;28;20198;-63
2024/01/30 07:05:21;;;;;;;22.80;20.60;;;4.30;1.00;;;;;;5088028;28;20201;-63
2024/01/30 07:07:48;;;;;;;22.03;20.03;;;4.30;1.00;;;;;;5090062;28;20193;-62
2024/01/30 07:10:15;;;;;;;27.73;22.00;;;4.30;1.00;;;;;;5089253;28;20194;-63
2024/01/30 07:12:42;;;;;;;26.27;21.63;;;4.30;1.00;;;;;;5089396;28;20186;-63
2024/01/30 07:15:10;;;;;;;23.17;20.63;;;4.30;1.00;;;;;;5087350;28;20214;-62
2024/01/30 07:17:37;;;;;;;25.17;22.20;;;4.40;1.00;;;;;;5089793;28;20244;-62
2024/01/30 07:20:05;;;;;;;20.20;18.37;;;4.40;1.00;;;;;;5089265;28;20194;-63
2024/01/30 07:22:33;;;;;;;21.33;19.43;;;4.50;1.00;;;;;;5088669;28;20198;-63
2024/01/30 07:25:00;;;;;;;19.97;18.27;;;4.50;1.00;;;;;;5088907;28;20200;-64
2024/01/30 07:27:27;;;;;;;22.03;19.80;;;4.60;1.00;;;;;;5082118;28;20403;-63
2024/01/30 07:29:54;;;;;;;21.77;19.50;;;4.60;1.00;;;;;;5078984;28;20233;-64
2024/01/30 07:32:21;;;;;;;22.20;20.07;;;4.70;1.00;;;;;;5081625;28;20209;-63
2024/01/30 07:34:48;;;;;;;21.07;18.93;;;4.70;1.00;;;;;;5084442;28;20603;-62
2024/01/30 07:37:33;;;;;;;19.70;17.90;;;4.80;1.00;;;;;;5032385;28;20999;-62
2024/01/30 07:40:00;;;;;;;22.70;19.77;;;5.00;1.00;;;;;;5050198;28;20198;-62
2024/01/30 07:42:28;;;;;;;22.60;20.27;;;5.10;1.00;;;;;;5069434;28;20209;-63
2024/01/30 07:44:54;;;;;;;19.50;17.90;;;5.20;1.00;;;;;;5069285;28;20191;-62
2024/01/30 07:47:21;;;;;;;19.17;17.47;;;5.30;1.00;;;;;;5064321;28;20218;-62
2024/01/30 07:49:48;;;;;;;21.90;19.60;;;5.50;1.00;;;;;;5051550;28;20213;-62
2024/01/30 07:52:15;;;;;;;20.73;18.90;;;5.60;1.00;;;;;;5079922;28;20191;-68
2024/01/30 07:54:43;;;;;;;20.87;19.07;;;5.70;1.00;;;;;;5043726;28;20229;-68
2024/01/30 07:57:10;;;;;;;19.67;18.17;;;5.80;1.00;;;;;;5069825;28;20605;-66
2024/01/30 07:59:37;;;;;;;20.57;18.63;;;6.20;1.00;;;;;;5033686;28;20206;-68
2024/01/30 08:02:04;;;;;;;21.67;19.47;;;6.40;99.90;;;;;;5048752;28;20235;-62
2024/01/30 08:04:31;;;;;;;29.60;23.17;;;6.40;1.00;;;;;;5061931;28;20195;-64
2024/01/30 08:06:58;;;;;;;25.40;20.73;;;6.40;99.90;;;;;;5030645;28;20192;-63
2024/01/30 08:09:25;;;;;;;26.17;23.37;;;6.40;99.90;;;;;;5049217;28;20207;-63
2024/01/30 08:11:52;;;;;;;25.53;22.77;;;6.30;99.90;;;;;;5068272;28;20274;-63
2024/01/30 08:14:19;;;;;;;25.43;22.00;;;6.30;99.90;;;;;;5049747;28;20714;-63
2024/01/30 08:16:46;;;;;;;23.30;21.10;;;6.30;99.90;;;;;;5068288;28;20198;-64
2024/01/30 08:19:14;;;;;;;24.07;21.60;;;6.50;99.90;;;;;;5030312;28;20199;-64
2024/01/30 08:21:41;;;;;;;25.67;22.90;;;6.60;99.90;;;;;;5048435;28;20215;-63
2024/01/30 08:24:08;;;;;;;22.77;20.47;;;6.70;99.90;;;;;;5058535;28;20210;-64
2024/01/30 08:26:35;;;;;;;25.10;20.83;;;6.90;99.90;;;;;;5079924;28;20568;-63
2024/01/30 08:29:02;;;;;;;23.93;21.23;;;7.00;99.90;;;;;;5066483;28;20195;-63
2024/01/30 08:31:29;;;;;;;22.43;20.20;;;7.20;99.90;;;;;;5066812;28;20714;-63
2024/01/30 08:33:56;;;;;;;21.73;19.63;;;7.30;99.90;;;;;;5067392;28;20673;-63
2024/01/30 08:36:23;;;;;;;22.60;20.60;;;7.40;99.90;;;;;;5065818;28;20242;-64
2024/01/30 08:38:50;;;;;;;22.53;20.70;;;7.50;99.90;;;;;;5047739;28;20625;-63
2024/01/30 08:41:20;;;;;;;23.57;20.90;;;7.70;99.90;;;;;;5067024;28;20213;-63
2024/01/30 08:43:47;;;;;;;24.47;22.13;;;7.80;99.90;;;;;;5066957;28;20191;-64
2024/01/30 08:46:18;;;;;;;22.10;20.10;;;8.00;99.90;;;;;;5067494;28;20586;-63
2024/01/30 08:48:47;;;;;;;23.53;19.90;;;8.10;99.90;;;;;;5058073;28;20182;-63
2024/01/30 08:51:15;;;;;;;23.40;21.23;;;8.20;99.90;;;;;;5067117;28;20191;-63
2024/01/30 08:53:42;;;;;;;23.57;21.17;;;8.30;99.90;;;;;;5049262;28;20303;-64
2024/01/30 08:56:10;;;;;;;24.30;20.10;;;8.40;99.90;;;;;;5049843;28;20293;-69
2024/01/30 08:58:37;;;;;;;27.10;24.27;;;8.60;99.90;;;;;;5051509;28;20210;-64
2024/01/30 09:01:05;;;;;;;28.43;25.73;;;8.70;99.90;;;;;;5040128;28;20286;-70
2024/01/30 09:03:32;;;;;;;28.47;25.57;;;8.80;99.90;;;;;;5049557;28;20616;-68
2024/01/30 09:05:59;;;;;;;31.37;28.17;;;8.90;99.90;;;;;;5058494;28;20513;-67
2024/01/30 09:08:26;;;;;;;32.27;26.50;;;8.90;99.90;;;;;;5048610;28;20191;-68
2024/01/30 09:10:54;;;;;;;28.67;25.90;;;8.90;99.90;;;;;;5066448;28;20711;-68
2024/01/30 09:13:21;;;;;;;27.40;24.63;;;8.90;99.90;;;;;;5066884;28;20473;-69
2024/01/30 09:15:49;;;;;;;27.03;24.33;;;8.80;99.90;;;;;;5047838;28;20293;-69
2024/01/30 09:18:16;;;;;;;26.30;23.97;;;8.90;99.90;;;;;;5049778;28;20187;-68
2024/01/30 09:20:43;;;;;;;22.13;20.33;;;8.90;99.90;;;;;;5038408;28;20706;-68
2024/01/30 09:23:10;;;;;;;22.27;20.17;;;9.00;99.90;;;;;;5060591;28;20582;-67
2024/01/30 09:25:38;;;;;;;22.47;20.40;;;9.10;99.90;;;;;;5032335;28;20202;-68
2024/01/30 09:28:05;;;;;;;21.77;20.03;;;9.20;99.90;;;;;;5058115;28;20186;-69
2024/01/30 09:30:32;;;;;;;20.97;19.37;;;9.50;99.90;;;;;;5067098;28;20203;-68
2024/01/30 09:33:00;;;;;;;20.83;19.03;;;9.90;99.90;;;;;;5054686;28;20191;-69
2024/01/30 09:35:27;;;;;;;21.03;19.43;;;10.50;99.90;;;;;;5065822;28;20229;-72
2024/01/30 09:37:54;;;;;;;23.50;21.17;;;11.30;99.90;;;;;;5063573;28;20673;-70
2024/01/30 09:40:21;;;;;;;22.63;20.58;;;12.20;99.90;;;;;;5066936;28;20202;-70
2024/01/30 09:42:50;;;;;;;21.83;19.83;;;12.40;99.90;;;;;;5049308;28;20243;-70
2024/01/30 09:45:18;;;;;;;20.10;18.50;;;12.10;99.90;;;;;;5061040;28;20617;-70
2024/01/30 09:47:46;;;;;;;19.83;18.27;;;11.60;99.90;;;;;;5065438;28;20263;-70
2024/01/30 09:50:14;;;;;;;20.20;18.48;;;11.40;99.90;;;;;;5048054;28;20198;-70
2024/01/30 09:52:43;;;;;;;21.50;19.38;;;11.20;99.90;;;;;;5066621;28;20301;-70
2024/01/30 09:55:11;;;;;;;20.77;18.85;;;10.90;99.90;;;;;;5047856;28;20543;-70
2024/01/30 09:57:39;;;;;;;20.45;18.67;;;10.80;99.90;;;;;;5048513;28;20632;-69
2024/01/30 10:00:09;;;;;;;20.10;18.33;;;10.90;99.90;;;;;;5048004;28;20332;-70
2024/01/30 10:02:40;;;;;;;20.15;18.52;;;10.90;99.90;;;;;;5059046;28;20230;-70
2024/01/30 10:05:08;;;;;;;20.67;18.90;;;10.90;99.90;;;;;;5066041;28;20206;-70
2024/01/30 10:07:36;;;;;;;20.57;18.53;;;11.00;99.90;;;;;;5049124;28;20199;-70
2024/01/30 10:10:05;;;;;;;22.30;20.47;;;11.50;99.90;;;;;;5066106;28;20210;-70
2024/01/30 10:12:32;;;;;;;21.90;20.00;;;12.60;99.90;;;;;;5066864;28;20684;-69
2024/01/30 10:14:59;;;;;;;22.30;19.92;;;13.80;99.90;;;;;;5066147;28;20665;-71
2024/01/30 10:17:27;;;;;;;22.23;20.20;;;13.50;99.90;;;;;;5043194;28;20187;-70
2024/01/30 10:20:00;;;;;;;20.23;18.52;;;12.90;99.90;;;;;;5046018;28;20203;-70
2024/01/30 10:22:28;;;;;;;21.17;19.38;;;12.70;99.90;;;;;;5039653;28;20215;-72
2024/01/30 10:24:56;;;;;;;20.05;18.42;;;12.30;99.90;;;;;;5064708;28;20249;-69
2024/01/30 10:27:27;;;;;;;20.70;18.75;;;12.30;99.90;;;;;;5047403;28;20183;-69
2024/01/30 10:29:54;;;;;;;20.27;18.45;;;12.00;99.90;;;;;;5046907;28;20221;-69
2024/01/30 10:32:21;;;;;;;19.70;18.30;;;11.80;99.90;;;;;;5066626;28;20698;-70
2024/01/30 10:34:48;;;;;;;20.13;18.40;;;11.60;99.90;;;;;;5064211;28;20246;-69
2024/01/30 10:37:18;;;;;;;21.50;19.37;;;11.70;99.90;;;;;;5066362;28;20263;-69
2024/01/30 10:39:46;;;;;;;20.00;18.30;;;11.60;99.90;;;;;;5065378;28;20669;-71
2024/01/30 10:42:15;;;;;;;26.23;21.20;;;11.70;99.90;;;;;;5048448;28;20557;-69
2024/01/30 10:44:56;;;;;;;21.20;19.50;;;12.40;99.90;;;;;;5065533;28;20195;-69
2024/01/30 10:47:28;;;;;;;21.37;19.40;;;12.70;99.90;;;;;;5059089;28;20191;-68
2024/01/30 10:49:57;;;;;;;21.77;19.58;;;12.70;99.90;;;;;;5035383;28;20205;-71
2024/01/30 10:52:25;;;;;;;19.00;17.60;;;12.70;99.90;;;;;;5066308;28;20911;-69
2024/01/30 10:54:54;;;;;;;19.57;18.00;;;12.60;99.90;;;;;;5065957;28;20223;-69
2024/01/30 10:57:25;;;;;;;20.05;18.42;;;12.50;99.90;;;;;;5066731;28;20195;-69
2024/01/30 10:59:58;;;;;;;19.80;18.10;;;12.40;99.90;;;;;;5041888;28;20491;-69
2024/01/30 11:02:27;;;;;;;21.17;19.23;;;12.40;99.90;;;;;;5061961;28;20215;-69
2024/01/30 11:04:58;;;;;;;19.87;18.20;;;12.30;99.90;;;;;;5042307;28;20205;-69
2024/01/30 11:07:29;;;;;;;19.73;18.10;;;12.30;99.90;;;;;;5066159;28;20624;-70
2024/01/30 11:10:02;;;;;;;18.80;17.40;;;12.20;99.90;;;;;;5065701;28;20191;-69
2024/01/30 11:12:34;;;;;;;19.83;18.00;;;12.20;99.90;;;;;;5066670;28;20205;-69
2024/01/30 11:15:05;;;;;;;19.97;18.37;;;12.20;99.90;;;;;;5070614;28;20243;-69
2024/01/30 11:17:47;;;;;;;19.30;17.80;;;12.20;99.90;;;;;;5067104;28;20199;-69
2024/01/30 11:20:27;;;;;;;20.00;18.10;;;12.40;99.90;;;;;;5065158;28;20270;-69
2024/01/30 11:22:56;;;;;;;19.63;17.70;;;12.40;99.90;;;;;;5066152;28;20199;-68
2024/01/30 11:25:24;;;;;;;19.20;17.75;;;12.50;99.90;;;;;;5065136;28;20195;-68
2024/01/30 11:27:55;;;;;;;20.67;18.65;;;12.70;99.90;;;;;;5065448;28;20214;-70
2024/01/30 11:30:30;;;;;;;19.33;17.88;;;13.00;99.90;;;;;;5046245;28;20287;-68
2024/01/30 11:33:04;;;;;;;20.00;18.13;;;14.10;99.90;;;;;;5049153;28;20703;-64
2024/01/30 11:35:39;;;;;;;19.45;17.88;;;14.20;99.90;;;;;;5067133;28;20375;-64
2024/01/30 11:38:10;;;;;;;19.27;17.58;;;13.90;99.90;;;;;;5057750;28;20520;-63
2024/01/30 11:40:39;;;;;;;19.55;17.80;;;13.90;99.90;;;;;;5065764;28;20187;-63
2024/01/30 11:43:08;;;;;;;21.92;17.67;;;15.80;99.90;;;;;;5051108;28;20257;-63
2024/01/30 11:45:37;;;;;;;19.48;17.70;;;17.60;99.90;;;;;;5056336;28;20620;-63
2024/01/30 11:48:04;;;;;;;19.50;17.83;;;16.70;99.90;;;;;;5066508;28;20198;-64
2024/01/30 11:50:35;;;;;;;20.08;18.02;;;15.80;99.90;;;;;;5067400;28;20199;-63
2024/01/30 11:53:03;;;;;;;19.67;17.90;;;15.60;99.90;;;;;;5069492;28;20385;-63
2024/01/30 11:55:30;;;;;;;20.08;18.38;;;17.10;99.90;;;;;;5050489;28;20297;-63
2024/01/30 11:58:01;;;;;;;19.30;17.85;;;17.90;99.90;;;;;;5057678;28;20297;-63
2024/01/30 12:00:30;;;;;;;20.30;18.65;;;16.50;99.90;;;;;;5064444;28;20230;-62
2024/01/30 12:03:00;;;;;;;19.67;18.08;;;15.90;99.90;;;;;;5050630;28;20223;-63
2024/01/30 12:05:28;;;;;;;19.60;18.10;;;15.50;99.90;;;;;;5064019;28;20187;-62
2024/01/30 12:07:58;;;;;;;19.38;17.77;;;14.90;99.90;;;;;;5076506;28;20187;-63
2024/01/30 12:10:26;;;;;;;20.27;18.23;;;14.60;99.90;;;;;;5061776;28;20218;-63
2024/01/30 12:12:54;;;;;;;19.52;18.02;;;14.30;99.90;;;;;;5068628;28;20187;-65
2024/01/30 12:15:22;;;;;;;20.38;18.63;;;14.30;99.90;;;;;;5067555;28;20209;-63
2024/01/30 12:17:49;;;;;;;19.40;17.80;;;14.30;99.90;;;;;;5069119;28;20213;-63
2024/01/30 12:20:21;;;;;;;19.38;17.70;;;14.30;99.90;;;;;;5068589;28;20183;-65
2024/01/30 12:22:50;;;;;;;20.77;18.92;;;14.40;99.90;;;;;;5038591;28;20218;-63
2024/01/30 12:25:19;;;;;;;19.30;17.80;;;14.30;99.90;;;;;;5062902;28;20212;-63
2024/01/30 12:27:51;;;;;;;21.23;19.20;;;14.00;99.90;;;;;;5045071;28;20529;-64
2024/01/30 12:30:20;;;;;;;20.77;18.73;;;13.70;99.90;;;;;;5067682;28;20187;-65
2024/01/30 12:32:50;;;;;;;20.33;18.27;;;13.60;99.90;;;;;;5067722;28;20256;-71
2024/01/30 12:35:19;;;;;;;19.98;18.10;;;13.50;99.90;;;;;;5040998;28;20580;-69
2024/01/30 12:37:48;;;;;;;19.98;17.95;;;13.40;99.90;;;;;;5084141;28;20182;-70
2024/01/30 12:40:16;;;;;;;19.70;17.80;;;13.50;99.90;;;;;;5087592;28;20266;-69
2024/01/30 12:42:48;;;;;;;19.02;17.20;;;13.50;99.90;;;;;;5087293;28;20214;-68
2024/01/30 12:45:20;;;;;;;18.75;17.15;;;13.50;99.90;;;;;;5087531;28;20183;-70